Time;durP1;ratioP1;P1;durP2;ratioP2;P2;SDS_P1;SDS_P2;PMS_P1;PMS_P2;Temp;Humidity;BMP_temperature;BMP_pressure;BME280_temperature;BME280_humidity;BME280_pressure;Samples;Min_cycle;Max_cycle;Signal;HPM_P1;HPM_P2
2020/02/24 17:23:03;;;;;;;9.6;7;;;;;;;;;;;;;
2020/02/24 17:25:34;;;;;;;11.8;7.8;;;;;;;;;;;;;
2020/02/24 17:28:06;;;;;;;9.9;7.8;;;;;;;;;;;;;
2020/02/24 17:30:38;;;;;;;8.9;7.8;;;;;;;;;;;;;
2020/02/24 17:33:10;;;;;;;11.7;8.4;;;;;;;;;;;;;
2020/02/24 17:35:42;;;;;;;12.3;9.6;;;;;;;;;;;;;
2020/02/24 17:38:14;;;;;;;8.5;7.6;;;;;;;;;;;;;
2020/02/24 17:40:46;;;;;;;12.2;8.3;;;;;;;;;;;;;
2020/02/24 17:43:18;;;;;;;15.1;12.6;;;;;;;;;;;;;
2020/02/24 17:45:50;;;;;;;11.8;9.7;;;;;;;;;;;;;
2020/02/24 17:48:21;;;;;;;10.5;8.6;;;;;;;;;;;;;
2020/02/24 17:50:52;;;;;;;11.7;8.7;;;;;;;;;;;;;
2020/02/24 17:53:24;;;;;;;10;7.9;;;;;;;;;;;;;
2020/02/24 17:55:57;;;;;;;10.7;8.4;;;;;;;;;;;;;
2020/02/24 17:58:28;;;;;;;10.4;8.8;;;;;;;;;;;;;
2020/02/24 18:01:00;;;;;;;13;11.6;;;;;;;;;;;;;
2020/02/24 18:03:32;;;;;;;10.3;8.3;;;;;;;;;;;;;
2020/02/24 18:06:04;;;;;;;11.2;9.4;;;;;;;;;;;;;
2020/02/24 18:08:36;;;;;;;10.3;9.2;;;;;;;;;;;;;
2020/02/24 18:11:08;;;;;;;8.7;7.8;;;;;;;;;;;;;
2020/02/24 18:13:41;;;;;;;10.4;8.6;;;;;;;;;;;;;
2020/02/24 18:16:12;;;;;;;8.1;6.8;;;;;;;;;;;;;
2020/02/24 18:18:44;;;;;;;7.9;6.1;;;;;;;;;;;;;
2020/02/24 18:21:17;;;;;;;9.5;6.8;;;;;;;;;;;;;
2020/02/24 18:23:49;;;;;;;7.1;5.9;;;;;;;;;;;;;
2020/02/24 18:26:20;;;;;;;6.9;6;;;;;;;;;;;;;
2020/02/24 18:28:52;;;;;;;10.5;7.6;;;;;;;;;;;;;
2020/02/24 18:31:25;;;;;;;10.1;7.2;;;;;;;;;;;;;
2020/02/24 18:33:58;;;;;;;9.1;7.5;;;;;;;;;;;;;
2020/02/24 18:36:37;;;;;;;6.7;5.9;;;;;;;;;;;;;
2020/02/24 18:39:10;;;;;;;6.6;4.6;;;;;;;;;;;;;
2020/02/24 18:46:32;;;;;;;5.5;4.6;;;;;;;;;;;;;
2020/02/24 18:49:05;;;;;;;5.2;4;;;;;;;;;;;;;
2020/02/24 18:51:37;;;;;;;4;3.6;;;;;;;;;;;;;
2020/02/24 18:54:09;;;;;;;6.8;3.8;;;;;;;;;;;;;
2020/02/24 18:56:41;;;;;;;5.1;4.2;;;;;;;;;;;;;
2020/02/24 18:59:13;;;;;;;5.3;3.6;;;;;;;;;;;;;
2020/02/24 19:01:44;;;;;;;4.3;3.7;;;;;;;;;;;;;
2020/02/24 19:04:16;;;;;;;4.9;3.3;;;;;;;;;;;;;
2020/02/24 19:06:48;;;;;;;4.2;3.3;;;;;;;;;;;;;
2020/02/24 19:09:20;;;;;;;4.4;3.2;;;;;;;;;;;;;
2020/02/24 19:12:01;;;;;;;5.2;3.1;;;;;;;;;;;;;
2020/02/24 19:14:36;;;;;;;3.7;2.8;;;;;;;;;;;;;
2020/02/24 19:17:14;;;;;;;3.8;3;;;;;;;;;;;;;
2020/02/24 19:19:47;;;;;;;4.7;2.9;;;;;;;;;;;;;
2020/02/24 19:22:19;;;;;;;4.9;3;;;;;;;;;;;;;
2020/02/24 19:24:52;;;;;;;2.9;2.6;;;;;;;;;;;;;
2020/02/24 19:27:24;;;;;;;3.6;2.8;;;;;;;;;;;;;
2020/02/24 19:29:56;;;;;;;4;2.8;;;;;;;;;;;;;
2020/02/24 19:32:27;;;;;;;3.7;2.6;;;;;;;;;;;;;
2020/02/24 19:34:59;;;;;;;3.1;2.5;;;;;;;;;;;;;
2020/02/24 19:37:31;;;;;;;3.2;2.7;;;;;;;;;;;;;
2020/02/24 19:40:02;;;;;;;2.9;2.6;;;;;;;;;;;;;
2020/02/24 19:42:35;;;;;;;3.9;2.7;;;;;;;;;;;;;
2020/02/24 19:45:07;;;;;;;3.7;2.6;;;;;;;;;;;;;
2020/02/24 19:47:41;;;;;;;3.8;2.6;;;;;;;;;;;;;
2020/02/24 19:50:14;;;;;;;3.1;2.6;;;;;;;;;;;;;
2020/02/24 19:52:45;;;;;;;4.7;3;;;;;;;;;;;;;
2020/02/24 19:55:17;;;;;;;3.1;2.5;;;;;;;;;;;;;
2020/02/24 19:57:49;;;;;;;3.2;2.8;;;;;;;;;;;;;
2020/02/24 20:00:21;;;;;;;3.8;2.5;;;;;;;;;;;;;
2020/02/24 20:02:59;;;;;;;4.9;2.5;;;;;;;;;;;;;
2020/02/24 20:05:34;;;;;;;3.3;2.6;;;;;;;;;;;;;
2020/02/24 20:08:06;;;;;;;2.5;2.2;;;;;;;;;;;;;
2020/02/24 20:10:39;;;;;;;2.9;2.5;;;;;;;;;;;;;
2020/02/24 20:13:11;;;;;;;3.3;2.6;;;;;;;;;;;;;
2020/02/24 20:15:43;;;;;;;3.4;2.2;;;;;;;;;;;;;
2020/02/24 20:18:15;;;;;;;3.2;2.3;;;;;;;;;;;;;
2020/02/24 20:20:47;;;;;;;3;2.2;;;;;;;;;;;;;
2020/02/24 20:23:19;;;;;;;2.3;2.1;;;;;;;;;;;;;
2020/02/24 20:25:51;;;;;;;2.8;2;;;;;;;;;;;;;
2020/02/24 20:28:23;;;;;;;3.5;2.1;;;;;;;;;;;;;
2020/02/24 20:30:55;;;;;;;2.5;2;;;;;;;;;;;;;
2020/02/24 20:33:26;;;;;;;2.1;1.9;;;;;;;;;;;;;
2020/02/24 20:35:58;;;;;;;2.6;2;;;;;;;;;;;;;
2020/02/24 20:38:30;;;;;;;2.8;1.9;;;;;;;;;;;;;
2020/02/24 20:41:02;;;;;;;2.8;1.9;;;;;;;;;;;;;
2020/02/24 20:43:34;;;;;;;2.7;2;;;;;;;;;;;;;
2020/02/24 20:46:06;;;;;;;1.9;1.7;;;;;;;;;;;;;
2020/02/24 20:48:38;;;;;;;2.3;1.9;;;;;;;;;;;;;
2020/02/24 20:51:13;;;;;;;3.4;1.9;;;;;;;;;;;;;
2020/02/24 20:53:45;;;;;;;3.1;1.8;;;;;;;;;;;;;
2020/02/24 20:56:17;;;;;;;2.5;2;;;;;;;;;;;;;
2020/02/24 20:58:49;;;;;;;2.8;2.1;;;;;;;;;;;;;
2020/02/24 21:01:23;;;;;;;2;1.8;;;;;;;;;;;;;
2020/02/24 21:03:55;;;;;;;3.1;1.6;;;;;;;;;;;;;
2020/02/24 21:06:28;;;;;;;2;1.6;;;;;;;;;;;;;
2020/02/24 21:09:00;;;;;;;2.5;1.7;;;;;;;;;;;;;
2020/02/24 21:11:37;;;;;;;2.4;2;;;;;;;;;;;;;
2020/02/24 21:14:09;;;;;;;2.4;1.9;;;;;;;;;;;;;
2020/02/24 21:17:32;;;;;;;2.2;1.8;;;;;;;;;;;;;
2020/02/24 21:19:27;;;;;;;2.4;1.7;;;;;;;;;;;;;
2020/02/24 21:22:00;;;;;;;3.5;1.9;;;;;;;;;;;;;
2020/02/24 21:24:32;;;;;;;2;1.6;;;;;;;;;;;;;
2020/02/24 21:27:05;;;;;;;2.2;1.8;;;;;;;;;;;;;
2020/02/24 21:29:37;;;;;;;2.7;1.6;;;;;;;;;;;;;
2020/02/24 21:32:14;;;;;;;2.3;1.7;;;;;;;;;;;;;
2020/02/24 21:34:48;;;;;;;2.9;1.8;;;;;;;;;;;;;
2020/02/24 21:37:20;;;;;;;2.5;1.7;;;;;;;;;;;;;
2020/02/24 21:39:53;;;;;;;2;1.7;;;;;;;;;;;;;
2020/02/24 21:42:25;;;;;;;2.1;1.9;;;;;;;;;;;;;
2020/02/24 21:44:59;;;;;;;2.7;1.7;;;;;;;;;;;;;
2020/02/24 21:47:32;;;;;;;2;1.8;;;;;;;;;;;;;
2020/02/24 21:50:06;;;;;;;3.9;2.1;;;;;;;;;;;;;
2020/02/24 21:52:50;;;;;;;2.3;2;;;;;;;;;;;;;
2020/02/24 21:55:22;;;;;;;2.9;1.8;;;;;;;;;;;;;
2020/02/24 21:58:00;;;;;;;2.9;2.1;;;;;;;;;;;;;
2020/02/24 22:00:32;;;;;;;2.1;1.7;;;;;;;;;;;;;
2020/02/24 22:03:06;;;;;;;2;1.7;;;;;;;;;;;;;
2020/02/24 22:05:40;;;;;;;2.3;1.6;;;;;;;;;;;;;
2020/02/24 22:08:13;;;;;;;3.2;1.9;;;;;;;;;;;;;
2020/02/24 22:10:46;;;;;;;2;1.6;;;;;;;;;;;;;
2020/02/24 22:13:19;;;;;;;3.3;1.7;;;;;;;;;;;;;
2020/02/24 22:16:10;;;;;;;3;1.8;;;;;;;;;;;;;
2020/02/24 22:18:43;;;;;;;2.1;1.5;;;;;;;;;;;;;
2020/02/24 22:21:15;;;;;;;3;1.6;;;;;;;;;;;;;
2020/02/24 22:23:49;;;;;;;2.1;1.5;;;;;;;;;;;;;
2020/02/24 22:26:22;;;;;;;3.2;1.6;;;;;;;;;;;;;
2020/02/24 22:28:55;;;;;;;2.5;1.7;;;;;;;;;;;;;
2020/02/24 22:31:32;;;;;;;2.8;1.8;;;;;;;;;;;;;
2020/02/24 22:34:05;;;;;;;2.9;1.5;;;;;;;;;;;;;
2020/02/24 22:36:38;;;;;;;2.6;1.6;;;;;;;;;;;;;
2020/02/24 22:39:10;;;;;;;2.4;1.5;;;;;;;;;;;;;
2020/02/24 22:41:44;;;;;;;1.5;1.3;;;;;;;;;;;;;
2020/02/24 22:44:16;;;;;;;1.8;1.4;;;;;;;;;;;;;
2020/02/24 22:46:48;;;;;;;2.4;1.4;;;;;;;;;;;;;
2020/02/24 22:49:21;;;;;;;1.5;1.4;;;;;;;;;;;;;
2020/02/24 22:51:54;;;;;;;2;1.4;;;;;;;;;;;;;
2020/02/24 22:54:30;;;;;;;1.7;1.5;;;;;;;;;;;;;
2020/02/24 22:57:03;;;;;;;1.5;1.3;;;;;;;;;;;;;
2020/02/24 22:59:38;;;;;;;2.4;1.3;;;;;;;;;;;;;
2020/02/24 23:02:16;;;;;;;1.3;1.2;;;;;;;;;;;;;
2020/02/24 23:04:48;;;;;;;2.1;1.3;;;;;;;;;;;;;
2020/02/24 23:07:20;;;;;;;1.4;1.2;;;;;;;;;;;;;
2020/02/24 23:09:52;;;;;;;1.8;1.4;;;;;;;;;;;;;
2020/02/24 23:12:25;;;;;;;2.8;1.4;;;;;;;;;;;;;
2020/02/24 23:15:02;;;;;;;1.7;1.4;;;;;;;;;;;;;
2020/02/24 23:17:34;;;;;;;2.3;1.4;;;;;;;;;;;;;
2020/02/24 23:20:16;;;;;;;1.8;1.2;;;;;;;;;;;;;
2020/02/24 23:22:49;;;;;;;2;1.6;;;;;;;;;;;;;
2020/02/24 23:25:21;;;;;;;1.9;1.4;;;;;;;;;;;;;
2020/02/24 23:27:55;;;;;;;1.4;1.3;;;;;;;;;;;;;
2020/02/24 23:30:27;;;;;;;1.9;1.3;;;;;;;;;;;;;
2020/02/24 23:33:00;;;;;;;1.7;1.4;;;;;;;;;;;;;
2020/02/24 23:35:33;;;;;;;1.3;1.2;;;;;;;;;;;;;
2020/02/24 23:38:07;;;;;;;1.9;1.4;;;;;;;;;;;;;
2020/02/24 23:40:39;;;;;;;1.3;1.1;;;;;;;;;;;;;
2020/02/24 23:43:11;;;;;;;1.8;1.3;;;;;;;;;;;;;
2020/02/24 23:45:50;;;;;;;1.6;1.3;;;;;;;;;;;;;
2020/02/24 23:48:26;;;;;;;2.5;1.3;;;;;;;;;;;;;
2020/02/24 23:51:00;;;;;;;1.5;1.3;;;;;;;;;;;;;
2020/02/24 23:53:31;;;;;;;1.5;1.3;;;;;;;;;;;;;
2020/02/24 23:56:04;;;;;;;2;1.2;;;;;;;;;;;;;
2020/02/24 23:58:35;;;;;;;1.6;1.2;;;;;;;;;;;;;
